createdAt,value
2022-10-26T00:00:11.833Z,12.89
2022-10-26T00:02:38.367Z,12.90
2022-10-26T00:05:05.660Z,12.90
2022-10-26T00:07:32.043Z,12.91
2022-10-26T00:09:58.390Z,12.92
2022-10-26T00:12:25.371Z,12.93
2022-10-26T00:14:51.699Z,12.94
2022-10-26T00:17:18.033Z,12.95
2022-10-26T00:19:44.452Z,12.94
2022-10-26T00:22:10.787Z,12.94
2022-10-26T00:24:37.221Z,12.94
2022-10-26T00:27:03.655Z,12.95
2022-10-26T00:29:30.011Z,12.94
2022-10-26T00:31:56.368Z,12.93
2022-10-26T00:34:25.730Z,12.94
2022-10-26T00:36:52.082Z,12.91
2022-10-26T00:39:18.461Z,12.90
2022-10-26T00:41:44.787Z,12.89
2022-10-26T00:44:48.356Z,12.89
2022-10-26T00:47:28.289Z,12.89
2022-10-26T00:49:56.734Z,12.85
2022-10-26T00:52:23.908Z,12.84
2022-10-26T00:54:51.457Z,12.83
2022-10-26T00:57:18.682Z,12.82
2022-10-26T00:59:46.267Z,12.82
2022-10-26T01:02:13.223Z,12.82
2022-10-26T01:04:40.183Z,12.81
2022-10-26T01:07:08.398Z,12.81
2022-10-26T01:09:36.021Z,12.81
2022-10-26T01:12:02.352Z,12.80
2022-10-26T01:14:29.031Z,12.81
2022-10-26T01:17:12.248Z,12.81
2022-10-26T01:19:57.442Z,12.80
2022-10-26T01:22:32.913Z,12.80
2022-10-26T01:25:08.870Z,12.79
2022-10-26T01:27:43.129Z,12.82
2022-10-26T01:30:43.999Z,12.80
2022-10-26T01:33:29.537Z,12.78
2022-10-26T01:36:16.370Z,12.75
2022-10-26T01:38:58.365Z,12.74
2022-10-26T01:41:32.979Z,12.73
2022-10-26T01:44:04.118Z,12.72
2022-10-26T01:46:37.595Z,12.72
2022-10-26T01:49:09.066Z,12.73
2022-10-26T01:51:36.268Z,12.72
2022-10-26T01:54:02.614Z,12.73
2022-10-26T01:56:32.049Z,12.76
2022-10-26T01:59:17.868Z,12.78
2022-10-26T02:01:53.303Z,12.80
2022-10-26T02:04:58.330Z,12.83
2022-10-26T02:07:40.112Z,12.85
2022-10-26T02:10:22.318Z,12.88
2022-10-26T02:12:51.654Z,12.89
2022-10-26T02:15:22.732Z,12.93
2022-10-26T02:18:30.023Z,12.95
2022-10-26T02:20:59.280Z,13.01
2022-10-26T02:23:27.454Z,13.02
2022-10-26T02:25:58.690Z,13.04
2022-10-26T02:28:33.717Z,13.07
2022-10-26T02:31:02.570Z,13.06
2022-10-26T02:33:33.247Z,13.09
2022-10-26T02:36:02.355Z,13.11
2022-10-26T02:38:30.864Z,13.14
2022-10-26T02:40:59.096Z,13.16
2022-10-26T02:43:28.158Z,13.18
2022-10-26T02:45:59.642Z,13.21
2022-10-26T02:48:26.086Z,13.22
2022-10-26T02:51:10.733Z,13.26
2022-10-26T02:53:55.142Z,13.27
2022-10-26T02:56:28.008Z,13.28
2022-10-26T02:58:59.504Z,13.29
2022-10-26T03:01:27.759Z,13.28
2022-10-26T03:03:57.758Z,13.30
2022-10-26T03:06:25.518Z,13.29
2022-10-26T03:08:52.493Z,13.30
2022-10-26T03:11:19.169Z,13.30
2022-10-26T03:13:45.555Z,13.29
2022-10-26T03:16:12.066Z,13.27
2022-10-26T03:18:38.394Z,13.27
2022-10-26T03:21:05.175Z,13.27
2022-10-26T03:23:31.639Z,13.25
2022-10-26T03:25:59.161Z,13.24
2022-10-26T03:28:25.916Z,13.22
2022-10-26T03:30:52.301Z,13.21
2022-10-26T03:33:18.934Z,13.18
2022-10-26T03:35:45.458Z,13.15
2022-10-26T03:38:15.792Z,13.14
2022-10-26T03:40:42.642Z,13.11
2022-10-26T03:43:08.977Z,13.10
2022-10-26T03:45:35.330Z,13.08
2022-10-26T03:48:01.711Z,13.05
2022-10-26T03:50:28.083Z,13.04
2022-10-26T03:52:54.417Z,13.03
2022-10-26T03:55:20.843Z,13.03
2022-10-26T03:57:47.175Z,13.04
2022-10-26T04:00:16.197Z,13.06
2022-10-26T04:02:46.928Z,13.07
2022-10-26T04:05:14.291Z,13.08
2022-10-26T04:07:40.622Z,13.10
2022-10-26T04:10:07.441Z,13.13
2022-10-26T04:12:37.255Z,13.16
2022-10-26T04:15:06.574Z,13.19
2022-10-26T04:17:32.976Z,13.23
2022-10-26T04:19:59.415Z,13.24
2022-10-26T04:22:25.762Z,13.27
2022-10-26T04:24:52.087Z,13.29
2022-10-26T04:27:18.578Z,13.31
2022-10-26T04:29:44.914Z,13.32
2022-10-26T04:32:11.248Z,13.34
2022-10-26T04:34:37.640Z,13.36
2022-10-26T04:37:04.043Z,13.36
2022-10-26T04:39:30.473Z,13.39
2022-10-26T04:41:56.874Z,13.40
2022-10-26T04:44:23.258Z,13.42
2022-10-26T04:46:49.579Z,13.43
2022-10-26T04:49:16.050Z,13.45
2022-10-26T04:51:42.422Z,13.47
2022-10-26T04:54:08.915Z,13.49
2022-10-26T04:56:36.066Z,13.52
2022-10-26T04:59:02.901Z,13.53
2022-10-26T05:01:31.139Z,13.56
2022-10-26T05:03:57.706Z,13.58
2022-10-26T05:06:24.131Z,13.59
2022-10-26T05:08:50.538Z,13.61
2022-10-26T05:11:17.063Z,13.65
2022-10-26T05:13:43.414Z,13.67
2022-10-26T05:16:09.762Z,13.68
2022-10-26T05:18:36.142Z,13.69
2022-10-26T05:21:02.623Z,13.71
2022-10-26T05:23:28.995Z,13.73
2022-10-26T05:25:56.586Z,13.74
2022-10-26T05:28:23.122Z,13.74
2022-10-26T05:30:49.463Z,13.76
2022-10-26T05:33:15.907Z,13.75
2022-10-26T05:35:42.503Z,13.76
2022-10-26T05:38:17.010Z,13.77
2022-10-26T05:40:50.899Z,13.78
2022-10-26T05:43:18.087Z,13.76
2022-10-26T05:45:44.554Z,13.76
2022-10-26T05:48:10.910Z,13.75
2022-10-26T05:50:37.459Z,13.74
2022-10-26T05:53:04.056Z,13.75
2022-10-26T05:55:30.882Z,13.74
2022-10-26T05:57:58.046Z,13.75
2022-10-26T06:00:26.664Z,13.75
2022-10-26T06:03:20.005Z,13.76
2022-10-26T06:06:01.641Z,13.76
2022-10-26T06:08:30.599Z,13.75
2022-10-26T06:10:59.382Z,13.75
2022-10-26T06:13:26.116Z,13.74
2022-10-26T06:16:31.010Z,13.76
2022-10-26T06:19:21.967Z,13.78
2022-10-26T06:22:24.064Z,13.79
2022-10-26T06:25:02.353Z,13.81
2022-10-26T06:27:44.083Z,13.83
2022-10-26T06:30:12.048Z,13.85
2022-10-26T06:32:45.305Z,13.89
2022-10-26T06:35:14.909Z,13.92
2022-10-26T06:37:44.313Z,13.97
2022-10-26T06:40:14.507Z,14.00
2022-10-26T06:42:41.212Z,14.05
2022-10-26T06:45:12.518Z,14.11
2022-10-26T06:48:00.597Z,14.16
2022-10-26T06:50:38.476Z,14.22
2022-10-26T06:53:23.730Z,14.25
2022-10-26T06:55:50.775Z,14.32
2022-10-26T06:58:23.794Z,14.39
2022-10-26T07:00:52.161Z,14.42
2022-10-26T07:03:18.530Z,14.48
2022-10-26T07:05:46.087Z,14.55
2022-10-26T07:08:12.644Z,14.60
2022-10-26T07:10:39.502Z,14.67
2022-10-26T07:13:06.578Z,14.72
2022-10-26T07:15:34.350Z,14.77
2022-10-26T07:18:01.226Z,14.83
2022-10-26T07:20:27.766Z,14.89
2022-10-26T07:22:55.599Z,14.96
2022-10-26T07:25:23.261Z,15.01
2022-10-26T07:27:49.849Z,15.07
2022-10-26T07:30:16.495Z,15.12
2022-10-26T07:32:42.984Z,15.19
2022-10-26T07:35:09.603Z,15.26
2022-10-26T07:37:36.077Z,15.31
2022-10-26T07:40:05.754Z,15.39
2022-10-26T07:42:33.641Z,15.46
2022-10-26T07:44:59.982Z,15.52
2022-10-26T07:47:26.332Z,15.59
2022-10-26T07:49:52.675Z,15.67
2022-10-26T07:52:19.014Z,15.73
2022-10-26T07:54:45.395Z,15.79
2022-10-26T07:57:11.770Z,15.88
2022-10-26T07:59:38.239Z,15.93
2022-10-26T08:02:04.654Z,15.98
2022-10-26T08:04:31.039Z,16.05
2022-10-26T08:06:57.517Z,16.10
2022-10-26T08:09:23.880Z,16.15
2022-10-26T08:11:50.231Z,16.20
2022-10-26T08:14:16.577Z,16.24
2022-10-26T08:16:42.978Z,16.30
2022-10-26T08:19:09.424Z,16.36
2022-10-26T08:21:39.505Z,16.41
2022-10-26T08:24:06.902Z,16.48
2022-10-26T08:26:33.270Z,16.53
2022-10-26T08:28:59.699Z,16.60
2022-10-26T08:31:26.048Z,16.64
2022-10-26T08:33:52.434Z,16.72
2022-10-26T08:36:23.924Z,16.80
2022-10-26T08:38:50.347Z,16.85
2022-10-26T08:41:16.740Z,16.91
2022-10-26T08:43:50.151Z,17.00
2022-10-26T08:46:21.836Z,17.07
2022-10-26T08:48:53.561Z,17.15
2022-10-26T08:51:25.325Z,17.22
2022-10-26T08:53:59.359Z,17.31
2022-10-26T08:56:44.894Z,17.39
2022-10-26T08:59:31.634Z,17.49
2022-10-26T09:01:58.108Z,17.55
2022-10-26T09:04:29.669Z,17.65
2022-10-26T09:07:19.250Z,17.74
2022-10-26T09:09:57.180Z,17.85
2022-10-26T09:12:55.440Z,17.95
2022-10-26T09:15:40.628Z,18.11
2022-10-26T09:18:24.654Z,18.24
2022-10-26T09:21:17.319Z,18.38
2022-10-26T09:24:06.750Z,18.59
2022-10-26T09:26:54.525Z,18.76
2022-10-26T09:29:27.513Z,18.89
2022-10-26T09:31:57.240Z,19.00
2022-10-26T09:34:31.256Z,19.11
2022-10-26T09:36:57.640Z,19.18
2022-10-26T09:39:30.917Z,19.25
2022-10-26T09:42:02.974Z,19.32
2022-10-26T09:44:36.479Z,19.38
2022-10-26T09:47:15.877Z,19.42
2022-10-26T09:49:58.654Z,19.48
2022-10-26T09:52:25.049Z,19.49
2022-10-26T09:54:51.454Z,19.53
2022-10-26T09:57:20.239Z,19.57
2022-10-26T09:59:47.958Z,19.58
2022-10-26T10:02:37.761Z,19.60
2022-10-26T10:08:22.047Z,19.56
2022-10-26T10:11:05.678Z,19.52
2022-10-26T10:13:36.940Z,19.47
2022-10-26T10:16:06.410Z,19.42
2022-10-26T10:18:33.864Z,19.36
2022-10-26T10:21:00.667Z,19.31
2022-10-26T10:23:30.502Z,19.28
2022-10-26T10:26:02.458Z,19.28
2022-10-26T10:28:29.584Z,19.30
2022-10-26T10:31:07.137Z,19.37
2022-10-26T10:33:41.304Z,19.44
2022-10-26T10:36:13.390Z,19.49
2022-10-26T10:38:42.514Z,19.56
2022-10-26T10:41:30.785Z,19.64
2022-10-26T10:44:09.021Z,19.73
2022-10-26T10:46:37.622Z,19.78
2022-10-26T10:49:06.797Z,19.84
2022-10-26T10:51:39.049Z,19.88
2022-10-26T10:54:17.797Z,19.92
2022-10-26T10:56:51.047Z,19.98
2022-10-26T10:59:45.632Z,20.03
2022-10-26T11:02:58.284Z,20.07
2022-10-26T11:05:44.093Z,20.10
2022-10-26T11:08:27.115Z,20.13
2022-10-26T11:11:19.160Z,20.15
2022-10-26T11:14:01.697Z,20.21
2022-10-26T11:16:53.846Z,20.23
2022-10-26T11:19:51.560Z,20.26
2022-10-26T11:22:24.145Z,20.30
2022-10-26T11:24:58.255Z,20.34
2022-10-26T11:27:39.935Z,20.37
2022-10-26T11:30:15.303Z,20.43
2022-10-26T11:32:47.471Z,20.51
2022-10-26T11:35:20.258Z,20.59
2022-10-26T11:37:58.869Z,20.68
2022-10-26T11:40:47.189Z,20.77
2022-10-26T11:44:09.386Z,20.85
2022-10-26T11:46:41.723Z,20.93
2022-10-26T11:49:19.858Z,21.01
2022-10-26T11:51:59.191Z,21.07
2022-10-26T11:54:37.187Z,21.14
2022-10-26T11:57:05.191Z,21.18
2022-10-26T11:59:37.237Z,21.25
2022-10-26T12:02:15.287Z,21.32
2022-10-26T12:04:44.690Z,21.37
2022-10-26T12:07:20.104Z,21.44
2022-10-26T12:09:46.455Z,21.52
2022-10-26T12:12:33.808Z,21.60
2022-10-26T12:15:30.916Z,21.68
2022-10-26T12:18:50.206Z,21.77
2022-10-26T12:21:18.766Z,21.80
2022-10-26T12:24:02.889Z,21.85
2022-10-26T12:26:29.172Z,21.86
2022-10-26T12:29:01.478Z,21.90
2022-10-26T12:31:37.233Z,21.94
2022-10-26T12:34:14.242Z,22.02
2022-10-26T12:37:06.728Z,22.09
2022-10-26T12:39:38.060Z,22.16
2022-10-26T12:42:04.323Z,22.22
2022-10-26T12:44:45.607Z,22.30
2022-10-26T12:47:30.211Z,22.39
2022-10-26T12:50:01.314Z,22.45
2022-10-26T12:52:33.478Z,22.49
2022-10-26T12:55:11.961Z,22.55
2022-10-26T12:57:56.495Z,22.60
2022-10-26T13:00:26.481Z,22.66
2022-10-26T13:02:55.652Z,22.70
2022-10-26T13:06:01.427Z,22.77
2022-10-26T13:08:28.407Z,22.79
2022-10-26T13:11:32.088Z,22.85
2022-10-26T13:14:02.914Z,22.87
2022-10-26T13:16:30.012Z,22.88
2022-10-26T13:18:57.863Z,22.89
2022-10-26T13:21:26.248Z,22.90
2022-10-26T13:23:56.710Z,22.91
2022-10-26T13:26:30.269Z,22.91
2022-10-26T13:29:03.921Z,22.90
2022-10-26T13:31:31.248Z,22.89
2022-10-26T13:34:01.091Z,22.88
2022-10-26T13:36:33.821Z,22.89
2022-10-26T13:39:06.386Z,22.88
2022-10-26T13:41:38.796Z,22.87
2022-10-26T13:44:18.323Z,22.87
2022-10-26T13:46:46.718Z,22.85
2022-10-26T13:49:27.631Z,22.86
2022-10-26T13:51:54.562Z,22.83
2022-10-26T13:54:30.141Z,22.85
2022-10-26T13:57:27.791Z,22.86
2022-10-26T14:00:00.058Z,22.85
2022-10-26T14:02:32.775Z,22.83
2022-10-26T14:05:05.295Z,22.82
2022-10-26T14:07:37.554Z,22.82
2022-10-26T14:10:04.728Z,22.79
2022-10-26T14:12:32.409Z,22.78
2022-10-26T14:15:06.916Z,22.76
2022-10-26T14:17:33.612Z,22.73
2022-10-26T14:20:00.649Z,22.73
2022-10-26T14:22:29.965Z,22.72
2022-10-26T14:24:58.800Z,22.69
2022-10-26T14:27:31.001Z,22.66
2022-10-26T14:30:21.198Z,22.65
2022-10-26T14:32:44.134Z,22.63
2022-10-26T14:35:14.406Z,22.61
2022-10-26T14:37:50.221Z,22.58
2022-10-26T14:40:18.087Z,22.58
2022-10-26T14:42:50.328Z,22.53
2022-10-26T14:45:48.049Z,22.50
2022-10-26T14:48:33.071Z,22.44
2022-10-26T14:51:16.899Z,22.39
2022-10-26T14:53:49.319Z,22.35
2022-10-26T14:56:35.777Z,22.31
2022-10-26T14:59:20.462Z,22.31
2022-10-26T15:02:03.287Z,22.27
2022-10-26T15:04:37.284Z,22.22
2022-10-26T15:07:12.753Z,22.18
2022-10-26T15:09:42.011Z,22.12
2022-10-26T15:12:38.134Z,22.10
2022-10-26T15:15:17.600Z,22.06
2022-10-26T15:17:51.544Z,22.01
2022-10-26T15:22:53.474Z,21.91
2022-10-26T15:25:27.241Z,21.86
2022-10-26T15:27:54.370Z,21.80
2022-10-26T15:30:26.648Z,21.77
2022-10-26T15:32:56.283Z,21.70
2022-10-26T15:35:26.251Z,21.65
2022-10-26T15:37:53.946Z,21.59
2022-10-26T15:40:22.205Z,21.52
2022-10-26T15:42:53.442Z,21.47
2022-10-26T15:45:32.815Z,21.41
2022-10-26T15:48:15.465Z,21.35
2022-10-26T15:50:41.808Z,21.27
2022-10-26T15:53:15.399Z,21.23
2022-10-26T15:55:41.812Z,21.16
2022-10-26T15:58:11.051Z,21.11
2022-10-26T16:00:37.647Z,21.04
2022-10-26T16:03:03.984Z,20.97
2022-10-26T16:07:58.940Z,20.86
2022-10-26T16:10:25.552Z,20.79
2022-10-26T16:12:52.029Z,20.74
2022-10-26T16:15:24.338Z,20.67
2022-10-26T16:17:51.249Z,20.59
2022-10-26T16:20:23.099Z,20.54
2022-10-26T16:22:51.525Z,20.46
2022-10-26T16:25:23.571Z,20.40
2022-10-26T16:27:50.577Z,20.34
2022-10-26T16:30:18.793Z,20.26
2022-10-26T16:32:45.468Z,20.19
2022-10-26T16:35:12.796Z,20.12
2022-10-26T16:37:39.322Z,20.06
2022-10-26T16:40:06.815Z,20.01
2022-10-26T16:42:33.422Z,19.93
2022-10-26T16:45:02.634Z,19.88
2022-10-26T16:47:32.093Z,19.82
2022-10-26T16:49:58.516Z,19.74
2022-10-26T16:52:24.916Z,19.67
2022-10-26T16:54:51.272Z,19.59
2022-10-26T16:57:17.675Z,19.51
2022-10-26T16:59:44.140Z,19.46
2022-10-26T17:02:14.325Z,19.39
2022-10-26T17:04:40.823Z,19.33
2022-10-26T17:07:07.180Z,19.25
2022-10-26T17:09:33.552Z,19.19
2022-10-26T17:12:02.177Z,19.11
2022-10-26T17:14:28.868Z,19.05
2022-10-26T17:16:55.342Z,18.97
2022-10-26T17:19:21.754Z,18.91
2022-10-26T17:21:48.123Z,18.84
2022-10-26T17:24:14.556Z,18.77
2022-10-26T17:26:41.622Z,18.72
2022-10-26T17:29:07.937Z,18.65
2022-10-26T17:31:34.323Z,18.61
2022-10-26T17:34:00.705Z,18.55
2022-10-26T17:36:27.395Z,18.49
2022-10-26T17:38:55.210Z,18.43
2022-10-26T17:41:22.259Z,18.38
2022-10-26T17:43:49.471Z,18.32
2022-10-26T17:46:18.221Z,18.27
2022-10-26T17:48:45.398Z,18.22
2022-10-26T17:51:19.020Z,18.16
2022-10-26T17:53:49.370Z,18.10
2022-10-26T17:56:24.056Z,18.04
2022-10-26T17:58:55.598Z,17.96
2022-10-26T18:01:22.576Z,17.91
2022-10-26T18:03:49.335Z,17.86
2022-10-26T18:06:17.155Z,17.82
2022-10-26T18:08:45.464Z,17.79
2022-10-26T18:11:25.311Z,17.74
2022-10-26T18:13:56.804Z,17.69
2022-10-26T18:16:25.263Z,17.65
2022-10-26T18:19:01.460Z,17.62
2022-10-26T18:21:30.443Z,17.57
2022-10-26T18:23:56.804Z,17.50
2022-10-26T18:26:26.441Z,17.46
2022-10-26T18:28:53.114Z,17.42
2022-10-26T18:31:22.608Z,17.39
2022-10-26T18:33:49.391Z,17.35
2022-10-26T18:36:18.242Z,17.32
2022-10-26T18:38:47.028Z,17.30
2022-10-26T18:41:15.170Z,17.27
2022-10-26T18:43:43.896Z,17.24
2022-10-26T18:46:12.629Z,17.22
2022-10-26T18:48:39.932Z,17.21
2022-10-26T18:51:14.568Z,17.22
2022-10-26T18:53:42.554Z,17.21
2022-10-26T18:56:11.207Z,17.21
2022-10-26T18:58:41.087Z,17.22
2022-10-26T19:01:11.932Z,17.22
2022-10-26T19:03:39.654Z,17.25
2022-10-26T19:06:20.882Z,17.26
2022-10-26T19:08:47.747Z,17.28
2022-10-26T19:11:17.257Z,17.31
2022-10-26T19:13:44.016Z,17.36
2022-10-26T19:16:17.406Z,17.41
2022-10-26T19:18:56.151Z,17.44
2022-10-26T19:21:23.749Z,17.44
2022-10-26T19:23:52.518Z,17.46
2022-10-26T19:26:21.656Z,17.44
2022-10-26T19:28:55.044Z,17.42
2022-10-26T19:31:26.214Z,17.41
2022-10-26T19:33:56.330Z,17.38
2022-10-26T19:36:22.948Z,17.32
2022-10-26T19:38:49.446Z,17.29
2022-10-26T19:41:16.936Z,17.24
2022-10-26T19:43:43.471Z,17.20
2022-10-26T19:46:14.927Z,17.15
2022-10-26T19:48:41.831Z,17.08
2022-10-26T19:51:08.769Z,17.03
2022-10-26T19:53:35.774Z,16.98
2022-10-26T19:56:02.503Z,16.95
2022-10-26T19:58:30.896Z,16.91
2022-10-26T20:00:59.203Z,16.89
2022-10-26T20:03:26.519Z,16.85
2022-10-26T20:05:56.656Z,16.85
2022-10-26T20:08:23.807Z,16.82
2022-10-26T20:10:53.350Z,16.81
2022-10-26T20:13:20.017Z,16.77
2022-10-26T20:15:46.383Z,16.76
2022-10-26T20:18:13.562Z,16.75
2022-10-26T20:20:39.881Z,16.73
2022-10-26T20:23:07.614Z,16.71
2022-10-26T20:25:38.272Z,16.70
2022-10-26T20:28:06.129Z,16.66
2022-10-26T20:30:35.158Z,16.63
2022-10-26T20:33:02.127Z,16.62
2022-10-26T20:35:28.505Z,16.57
2022-10-26T20:37:56.186Z,16.55
2022-10-26T20:40:23.900Z,16.52
2022-10-26T20:42:52.163Z,16.49
2022-10-26T20:45:27.507Z,16.49
2022-10-26T20:47:57.022Z,16.45
2022-10-26T20:50:25.156Z,16.43
2022-10-26T20:53:02.482Z,16.41
2022-10-26T20:55:41.021Z,16.38
2022-10-26T20:58:45.109Z,16.35
2022-10-26T21:01:25.302Z,16.32
2022-10-26T21:03:53.430Z,16.29
2022-10-26T21:06:20.129Z,16.26
2022-10-26T21:08:49.613Z,16.26
2022-10-26T21:11:17.143Z,16.22
2022-10-26T21:13:45.719Z,16.19
2022-10-26T21:16:12.415Z,16.18
2022-10-26T21:18:39.183Z,16.16
2022-10-26T21:21:05.817Z,16.14
2022-10-26T21:23:33.589Z,16.14
2022-10-26T21:26:00.625Z,16.13
2022-10-26T21:28:33.628Z,16.13
2022-10-26T21:31:04.096Z,16.11
2022-10-26T21:33:33.634Z,16.09
2022-10-26T21:36:01.081Z,16.09
2022-10-26T21:38:28.827Z,16.06
2022-10-26T21:41:26.792Z,16.07
2022-10-26T21:44:03.290Z,16.04
2022-10-26T21:46:38.156Z,16.02
2022-10-26T21:49:05.115Z,16.01
2022-10-26T21:51:31.479Z,16.00
2022-10-26T21:53:58.346Z,15.99
2022-10-26T21:56:24.743Z,15.98
2022-10-26T21:58:51.068Z,15.96
2022-10-26T22:01:19.851Z,15.95
2022-10-26T22:03:47.686Z,15.95
2022-10-26T22:06:16.595Z,15.93
2022-10-26T22:08:43.835Z,15.91
2022-10-26T22:11:15.191Z,15.91
2022-10-26T22:13:42.891Z,15.90
2022-10-26T22:16:15.441Z,15.92
2022-10-26T22:18:45.991Z,15.92
2022-10-26T22:21:13.789Z,15.92
2022-10-26T22:23:42.428Z,15.92
2022-10-26T22:26:11.719Z,15.92
2022-10-26T22:28:42.465Z,15.91
2022-10-26T22:31:15.540Z,15.91
2022-10-26T22:33:42.516Z,15.89
2022-10-26T22:36:11.833Z,15.88
2022-10-26T22:38:38.513Z,15.86
2022-10-26T22:41:05.681Z,15.84
2022-10-26T22:43:32.403Z,15.82
2022-10-26T22:46:07.890Z,15.82
2022-10-26T22:48:35.005Z,15.80
2022-10-26T22:51:09.151Z,15.78
2022-10-26T22:53:36.025Z,15.75
2022-10-26T22:56:04.110Z,15.74
2022-10-26T22:58:30.888Z,15.70
2022-10-26T23:01:14.986Z,15.67
2022-10-26T23:03:41.487Z,15.64
2022-10-26T23:06:12.485Z,15.61
2022-10-26T23:08:39.406Z,15.59
2022-10-26T23:11:08.895Z,15.57
2022-10-26T23:13:35.343Z,15.55
2022-10-26T23:16:20.155Z,15.54
2022-10-26T23:18:47.488Z,15.52
2022-10-26T23:21:14.941Z,15.50
2022-10-26T23:23:41.654Z,15.49
2022-10-26T23:26:12.287Z,15.49
2022-10-26T23:28:39.430Z,15.47
2022-10-26T23:31:06.588Z,15.46
2022-10-26T23:33:33.347Z,15.44
2022-10-26T23:36:01.121Z,15.43
2022-10-26T23:38:27.607Z,15.42
2022-10-26T23:40:59.418Z,15.42
2022-10-26T23:43:27.379Z,15.39
2022-10-26T23:45:54.945Z,15.36
2022-10-26T23:48:21.535Z,15.37
2022-10-26T23:50:49.633Z,15.35
2022-10-26T23:53:17.879Z,15.34
2022-10-26T23:55:44.865Z,15.32
2022-10-26T23:58:12.203Z,15.30
